createdAt,value
2023-04-19T00:01:52.675Z,16.5
2023-04-19T00:03:54.715Z,12.7
2023-04-19T00:07:58.557Z,22
2023-04-19T00:10:00.545Z,12.9
2023-04-19T00:14:07.727Z,13.4
2023-04-19T00:16:09.701Z,17
2023-04-19T00:18:11.669Z,15.3
2023-04-19T00:20:13.645Z,41.1
2023-04-19T00:22:15.653Z,15.5
2023-04-19T00:24:17.594Z,28.2
2023-04-19T00:32:28.748Z,16.5
2023-04-19T00:33:31.356Z,16
2023-04-19T00:35:33.300Z,16.3
2023-04-19T00:37:35.242Z,23
2023-04-19T00:39:37.235Z,20.3
2023-04-19T00:41:42.423Z,24.3
2023-04-19T00:43:44.417Z,13.5
2023-04-19T00:45:46.430Z,18.8
2023-04-19T00:47:48.449Z,24.2
2023-04-19T00:49:50.354Z,13.4
2023-04-19T01:02:05.479Z,18.4
2023-04-19T01:04:07.563Z,16.2
2023-04-19T01:06:09.413Z,16.9
2023-04-19T01:08:11.415Z,15.7
2023-04-19T01:10:16.577Z,18.8
2023-04-19T01:12:18.811Z,20.4
2023-04-19T01:14:20.567Z,18.4
2023-04-19T01:16:22.593Z,18.7
2023-04-19T01:18:24.580Z,13.5
2023-04-19T01:20:26.505Z,17.7
2023-04-19T01:22:28.626Z,18.5
2023-04-19T01:24:33.692Z,17.2
2023-04-19T01:26:35.670Z,17.2
2023-04-19T01:31:06.517Z,16.5
2023-04-19T01:39:17.665Z,27.3
2023-04-19T01:41:19.624Z,18.3
2023-04-19T01:43:21.610Z,16.5
2023-04-19T01:45:23.585Z,17.7
2023-04-19T01:47:25.603Z,19.2
2023-04-19T01:49:27.528Z,14.1
2023-04-19T02:01:42.674Z,17.4
2023-04-19T02:09:53.737Z,16.3
2023-04-19T02:11:55.723Z,18.4
2023-04-19T02:13:57.717Z,14.4
2023-04-19T02:18:01.745Z,15.1
2023-04-19T02:20:06.896Z,15
2023-04-19T02:22:08.877Z,18.9
2023-04-19T02:24:10.867Z,16.6
2023-04-19T02:25:13.461Z,17
2023-04-19T02:27:15.424Z,18.9
2023-04-19T02:29:17.397Z,17.4
2023-04-19T02:31:19.397Z,15.5
2023-04-19T02:33:24.572Z,18.9
2023-04-19T02:35:26.561Z,13.5
2023-04-19T02:37:28.556Z,18.9
2023-04-19T02:39:30.547Z,13.8
2023-04-19T02:41:32.522Z,23.1
2023-04-19T02:43:34.620Z,20.6
2023-04-19T02:47:41.714Z,15.3
2023-04-19T02:51:45.641Z,15.6
2023-04-19T02:53:47.610Z,16
2023-04-19T02:55:49.600Z,17.6
2023-04-19T02:57:51.594Z,17.3
2023-04-19T02:59:53.553Z,18.8
2023-04-19T03:01:58.842Z,19.1
2023-04-19T03:04:00.839Z,13.3
2023-04-19T03:06:02.738Z,16.7
2023-04-19T03:08:04.701Z,12.4
2023-04-19T03:10:06.696Z,14
2023-04-19T03:12:08.648Z,16.5
2023-04-19T03:14:10.685Z,12.2
2023-04-19T03:16:15.876Z,17.8
2023-04-19T03:18:17.815Z,15.2
2023-04-19T03:21:22.476Z,15
2023-04-19T03:25:26.394Z,19.3
2023-04-19T03:27:28.375Z,28.2
2023-04-19T03:29:33.580Z,17.4
2023-04-19T03:31:35.572Z,17.2
2023-04-19T03:35:39.483Z,18.3
2023-04-19T03:37:41.460Z,14.6
2023-04-19T03:39:43.451Z,14.7
2023-04-19T03:41:45.448Z,10.4
2023-04-19T03:43:50.658Z,23.1
2023-04-19T03:45:52.721Z,12.1
2023-04-19T03:49:56.584Z,12.8
2023-04-19T03:51:58.549Z,15.8
2023-04-19T03:56:02.556Z,14.6
2023-04-19T04:02:11.766Z,14.5
2023-04-19T04:04:13.774Z,15.1
2023-04-19T04:12:24.788Z,13.7
2023-04-19T04:17:31.379Z,15
2023-04-19T04:19:33.355Z,19.2
2023-04-19T04:21:35.308Z,15.8
2023-04-19T04:23:37.302Z,14.1
2023-04-19T04:25:42.541Z,19.6
2023-04-19T04:27:44.454Z,14.9
2023-04-19T04:33:50.434Z,18
2023-04-19T04:37:54.376Z,13.9
2023-04-19T04:39:59.561Z,11.3
2023-04-19T04:42:01.551Z,18.1
2023-04-19T04:46:05.733Z,14
2023-04-19T04:48:07.636Z,18.8
2023-04-19T04:50:09.477Z,17.5
2023-04-19T04:52:11.430Z,9.6
2023-04-19T05:00:22.580Z,11.1
2023-04-19T05:12:37.642Z,18
2023-04-19T05:17:08.478Z,11
2023-04-19T05:19:10.432Z,13.1
2023-04-19T05:21:17.203Z,17.1
2023-04-19T05:25:21.089Z,8.4
2023-04-19T05:27:23.068Z,8.6
2023-04-19T05:29:25.034Z,17
2023-04-19T05:33:28.986Z,10
2023-04-19T05:35:34.236Z,20.3
2023-04-19T05:37:36.186Z,9.6
2023-04-19T05:39:38.171Z,14.3
2023-04-19T05:41:40.165Z,8.6
2023-04-19T05:43:42.123Z,8.2
2023-04-19T05:45:44.145Z,15.2
2023-04-19T05:47:46.129Z,14.6
2023-04-19T05:53:57.301Z,10.3
2023-04-19T05:55:57.236Z,17.1
2023-04-19T06:09:14.956Z,6.2
2023-04-19T06:11:26.581Z,5.2
2023-04-19T06:13:18.970Z,9.7
2023-04-19T06:15:20.953Z,9.5
2023-04-19T06:17:26.220Z,6.9
2023-04-19T06:19:28.163Z,8
2023-04-19T06:21:30.136Z,8.9
2023-04-19T06:23:32.161Z,5.6
2023-04-19T06:25:34.120Z,8.9
2023-04-19T06:27:36.129Z,13.2
2023-04-19T06:33:45.349Z,8.9
2023-04-19T06:39:51.363Z,7.6
2023-04-19T06:41:53.325Z,4.6
2023-04-19T06:43:55.334Z,7.3
2023-04-19T06:46:00.524Z,7.6
2023-04-19T06:48:02.499Z,8.2
2023-04-19T06:50:04.269Z,18.4
2023-04-19T06:52:06.149Z,7.4
2023-04-19T06:54:08.056Z,5.6
2023-04-19T06:56:09.944Z,4.6
2023-04-19T06:58:11.844Z,8
2023-04-19T07:00:16.878Z,9.5
2023-04-19T07:02:18.873Z,6.7
2023-04-19T07:04:21.152Z,9.1
2023-04-19T07:05:23.168Z,4.7
2023-04-19T07:07:25.055Z,7.5
2023-04-19T07:17:37.812Z,7.6
2023-04-19T07:19:39.732Z,3.6
2023-04-19T07:21:41.451Z,3.6
2023-04-19T07:25:45.245Z,10.6
2023-04-19T07:29:52.146Z,8.7
2023-04-19T07:37:59.627Z,3.2
2023-04-19T07:40:01.614Z,3.7
2023-04-19T07:42:06.518Z,4
2023-04-19T07:44:08.404Z,8.6
2023-04-19T07:46:10.313Z,5.4
2023-04-19T07:50:14.031Z,5.7
2023-04-19T07:54:18.061Z,3.5
2023-04-19T07:56:22.870Z,4.2
2023-04-19T08:00:26.627Z,2.7
2023-04-19T08:01:31.389Z,4.1
2023-04-19T08:03:31.137Z,3.3
2023-04-19T08:05:33.026Z,4.2
2023-04-19T08:07:34.729Z,3.6
2023-04-19T08:13:48.597Z,5.7
2023-04-19T08:21:51.062Z,4
2023-04-19T08:23:56.106Z,3.8
2023-04-19T08:27:59.885Z,5.2
2023-04-19T08:30:01.760Z,2.8
2023-04-19T08:32:03.678Z,15.3
2023-04-19T08:34:05.520Z,2.6
2023-04-19T08:36:07.400Z,2.3
2023-04-19T08:38:12.414Z,3.7
2023-04-19T08:40:14.318Z,3
2023-04-19T08:44:32.741Z,3.7
2023-04-19T08:48:21.917Z,9.5
2023-04-19T08:50:32.459Z,4.7
2023-04-19T08:52:28.798Z,8.5
2023-04-19T08:56:35.783Z,5
2023-04-19T08:59:15.651Z,2.5
2023-04-19T09:15:19.380Z,2.4
2023-04-19T09:19:26.493Z,2
2023-04-19T09:25:47.192Z,1.8
2023-04-19T09:29:35.684Z,3.7
2023-04-19T09:35:44.443Z,9.2
2023-04-19T09:39:48.207Z,3.1
2023-04-19T09:44:05.603Z,3.3
2023-04-19T09:47:58.849Z,4.5
2023-04-19T09:50:00.883Z,5.8
2023-04-19T09:52:02.530Z,8.1
2023-04-19T09:53:05.045Z,10.5
2023-04-19T10:01:16.774Z,2.6
2023-04-19T10:21:37.469Z,6.1
2023-04-19T10:23:39.327Z,5.9
2023-04-19T10:27:43.089Z,16.5
2023-04-19T10:29:48.104Z,19.9
2023-04-19T10:33:51.883Z,5.8
2023-04-19T10:39:57.486Z,5.3
2023-04-19T10:41:59.480Z,2.5
2023-04-19T10:49:11.107Z,13.1
2023-04-19T10:51:13.004Z,3.6
2023-04-19T10:53:14.887Z,6.6
2023-04-19T11:09:33.074Z,5
2023-04-19T11:11:38.121Z,5.6
2023-04-19T11:15:43.312Z,5
2023-04-19T11:36:05.105Z,13.9
2023-04-19T11:38:06.943Z,5.6
2023-04-19T11:40:11.955Z,7.1
2023-04-19T11:42:13.835Z,4.6
2023-04-19T11:44:16.051Z,4.4
2023-04-19T11:45:28.636Z,10.5
2023-04-19T11:47:20.098Z,6.3
2023-04-19T11:49:21.926Z,3.2
2023-04-19T11:51:23.817Z,4.1
2023-04-19T11:55:30.657Z,5.2
2023-04-19T11:57:32.552Z,4.2
2023-04-19T11:59:34.387Z,5.1
2023-04-19T12:01:36.233Z,4.5
2023-04-19T12:03:38.339Z,8.5
2023-04-19T12:05:40.094Z,8.4
2023-04-19T12:09:46.820Z,3.7
2023-04-19T12:11:48.657Z,5.2
2023-04-19T12:15:52.370Z,6
2023-04-19T12:17:57.467Z,8.5
2023-04-19T12:19:56.076Z,4.7
2023-04-19T12:22:01.038Z,5
2023-04-19T12:24:02.908Z,5.4
2023-04-19T12:28:06.614Z,3.4
2023-04-19T12:30:08.449Z,5.3
2023-04-19T12:32:10.344Z,5.9
2023-04-19T12:34:12.168Z,7.4
2023-04-19T12:36:17.171Z,5.9
2023-04-19T12:38:19.037Z,4.8
2023-04-19T12:40:20.881Z,5.6
2023-04-19T12:42:49.404Z,6.5
2023-04-19T12:44:51.307Z,5.7
2023-04-19T12:46:53.153Z,4.8
2023-04-19T12:48:58.174Z,4.5
2023-04-19T12:57:05.620Z,9
2023-04-19T12:59:07.479Z,4.4
2023-04-19T13:01:09.359Z,6.8
2023-04-19T13:03:14.476Z,7.6
2023-04-19T13:05:16.176Z,3.2
2023-04-19T13:09:19.893Z,7.6
2023-04-19T13:21:34.045Z,4.4
2023-04-19T13:25:37.741Z,5.3
2023-04-19T13:29:41.401Z,3.5
2023-04-19T13:31:46.403Z,5.4
2023-04-19T13:33:48.218Z,4.5
2023-04-19T13:35:50.121Z,3.9
2023-04-19T13:36:52.571Z,5.8
2023-04-19T13:59:19.178Z,4.4
2023-04-19T14:01:21.075Z,3.1
2023-04-19T14:03:23.251Z,7
2023-04-19T14:05:24.706Z,3.9
2023-04-19T14:07:26.545Z,4.5
2023-04-19T14:09:28.422Z,3.2
2023-04-19T14:17:39.016Z,5.1
2023-04-19T14:21:42.726Z,5.3
2023-04-19T14:23:44.593Z,8.9
2023-04-19T14:25:46.439Z,4.3
2023-04-19T14:27:51.457Z,4.1
2023-04-19T14:29:53.330Z,8.3
2023-04-19T14:31:55.234Z,5.7
2023-04-19T14:32:57.709Z,3.3
2023-04-19T14:55:24.433Z,10.2
2023-04-19T15:05:33.809Z,6.1
2023-04-19T15:07:35.578Z,5.8
2023-04-19T15:09:40.579Z,6.6
2023-04-19T15:11:42.413Z,5.3
2023-04-19T15:15:46.205Z,6
2023-04-19T15:17:48.017Z,4.5
2023-04-19T15:19:49.860Z,4.5
2023-04-19T15:21:51.764Z,6.3
2023-04-19T15:23:56.745Z,6
2023-04-19T15:28:00.469Z,4.5
2023-04-19T15:29:03.000Z,6.8
2023-04-19T15:33:06.766Z,7
2023-04-19T15:35:08.607Z,6.7
2023-04-19T15:37:13.611Z,7.1
2023-04-19T15:49:24.885Z,11.8
2023-04-19T16:09:49.992Z,12.6
2023-04-19T16:11:51.906Z,5.5
2023-04-19T16:20:02.610Z,4.6
2023-04-19T16:28:36.838Z,4
2023-04-19T16:30:38.705Z,4.5
2023-04-19T16:32:43.857Z,9.6
2023-04-19T16:34:45.679Z,4.1
2023-04-19T16:36:47.541Z,4.1
2023-04-19T16:38:49.420Z,5.1
2023-04-19T16:40:51.388Z,3.6
2023-04-19T16:42:53.206Z,4.9
2023-04-19T16:44:55.089Z,7.2
2023-04-19T16:47:00.155Z,4.2
2023-04-19T16:49:02.079Z,7.9
2023-04-19T16:51:03.971Z,4.5
2023-04-19T16:53:05.847Z,5.6
2023-04-19T16:55:07.739Z,8.6
2023-04-19T16:57:09.626Z,5.7
2023-04-19T16:59:11.529Z,9.6
2023-04-19T17:01:16.595Z,4.2
2023-04-19T17:03:18.610Z,6.7
2023-04-19T17:05:21.905Z,4.6
2023-04-19T17:07:23.739Z,3.8
2023-04-19T17:09:25.642Z,3.9
2023-04-19T17:11:27.515Z,7.7
2023-04-19T17:13:29.433Z,4.9
2023-04-19T17:15:34.485Z,2.9
2023-04-19T17:17:36.484Z,9.6
2023-04-19T17:19:38.242Z,3.7
2023-04-19T17:20:40.756Z,4.5
2023-04-19T17:24:44.578Z,5.4
2023-04-19T17:26:46.476Z,8.6
2023-04-19T17:28:51.513Z,5.5
2023-04-19T17:30:53.427Z,3.1
2023-04-19T17:32:55.442Z,6.2
2023-04-19T17:34:57.204Z,6.9
2023-04-19T17:36:59.116Z,7.2
2023-04-19T17:47:11.753Z,5.1
2023-04-19T17:53:17.481Z,4.9
2023-04-19T17:55:19.390Z,5.4
2023-04-19T17:59:26.322Z,6.3
2023-04-19T18:03:30.271Z,4.8
2023-04-19T18:05:32.006Z,6
2023-04-19T18:07:33.924Z,8.2
2023-04-19T18:09:35.853Z,3.9
2023-04-19T18:13:42.775Z,6
2023-04-19T18:15:44.660Z,3
2023-04-19T18:16:47.207Z,6.9
2023-04-19T18:18:49.125Z,4.3
2023-04-19T18:22:52.960Z,7.2
2023-04-19T18:24:57.959Z,9.3
2023-04-19T18:26:59.882Z,3.7
2023-04-19T18:29:01.786Z,3.5
2023-04-19T18:35:07.490Z,6.2
2023-04-19T18:41:16.330Z,9.4
2023-04-19T18:45:20.275Z,10
2023-04-19T18:47:22.153Z,4.5
2023-04-19T18:49:24.177Z,9.6
2023-04-19T18:55:33.186Z,6
2023-04-19T18:57:35.540Z,10.8
2023-04-19T18:59:37.006Z,6.4
2023-04-19T19:01:39.001Z,5
2023-04-19T19:04:07.784Z,8.1
2023-04-19T19:05:43.309Z,8.3
2023-04-19T19:07:48.107Z,7
2023-04-19T19:09:55.660Z,12.5
2023-04-19T19:11:56.525Z,5.4
2023-04-19T19:12:54.325Z,7.5
2023-04-19T19:16:58.221Z,4.2
2023-04-19T19:19:00.076Z,6.7
2023-04-19T19:21:05.114Z,4.9
2023-04-19T19:23:07.255Z,7.1
2023-04-19T19:25:08.954Z,5.3
2023-04-19T19:37:24.088Z,6.2
2023-04-19T19:39:25.982Z,5.5
2023-04-19T19:41:49.507Z,10.5
2023-04-19T19:43:29.891Z,5.9
2023-04-19T19:45:31.810Z,8.2
2023-04-19T19:47:33.899Z,7.2
2023-04-19T19:51:53.400Z,5.6
2023-04-19T19:53:42.987Z,5.6
2023-04-19T19:55:44.975Z,5.6
2023-04-19T19:59:54.493Z,8.4
2023-04-19T20:01:51.115Z,4.9
2023-04-19T20:03:56.683Z,11.4
2023-04-19T20:08:02.329Z,3.9
2023-04-19T20:10:29.153Z,8.5
2023-04-19T20:12:31.152Z,8.3
2023-04-19T20:14:33.056Z,6.5
2023-04-19T20:16:38.282Z,5.6
2023-04-19T20:20:42.236Z,4.7
2023-04-19T20:22:44.245Z,7.9
2023-04-19T20:24:46.278Z,7.5
2023-04-19T20:28:50.279Z,4.9
2023-04-19T20:30:55.547Z,12.8
2023-04-19T20:32:57.585Z,6.4
2023-04-19T20:34:59.541Z,7.2
2023-04-19T20:37:01.568Z,4.6
2023-04-19T20:39:05.016Z,5.2
2023-04-19T20:41:05.572Z,7.6
2023-04-19T20:43:07.562Z,13.1
2023-04-19T20:45:12.823Z,7.1
2023-04-19T20:47:14.795Z,6.4
2023-04-19T20:49:16.960Z,6.3
2023-04-19T20:51:18.809Z,8.1
2023-04-19T20:53:20.800Z,4.4
2023-04-19T20:55:22.776Z,4.9
2023-04-19T20:57:24.800Z,12.3
2023-04-19T20:59:30.017Z,8.9
2023-04-19T21:01:32.064Z,7.6
2023-04-19T21:03:34.150Z,8.5
2023-04-19T21:04:36.653Z,6
2023-04-19T21:14:49.841Z,4.7
2023-04-19T21:20:55.800Z,12.7
2023-04-19T21:37:14.965Z,3.3
2023-04-19T21:43:24.189Z,6.3
2023-04-19T21:45:26.161Z,16.7
2023-04-19T21:47:28.133Z,4.7
2023-04-19T21:49:30.130Z,4.3
2023-04-19T21:51:32.131Z,5.7
2023-04-19T21:53:34.098Z,4.9
2023-04-19T21:55:39.329Z,17.8
2023-04-19T21:57:41.316Z,6.6
2023-04-19T21:59:43.292Z,4.3
2023-04-19T22:00:45.932Z,4.8
2023-04-19T22:02:47.967Z,6.1
2023-04-19T22:04:49.872Z,5.5
2023-04-19T22:06:51.892Z,5.7
2023-04-19T22:17:05.010Z,13.1
2023-04-19T22:19:07.029Z,4.4
2023-04-19T22:21:09.004Z,7.8
2023-04-19T22:23:14.214Z,13.6
2023-04-19T22:25:16.205Z,5.3
2023-04-19T22:27:18.172Z,4.3
2023-04-19T22:29:20.196Z,4.1
2023-04-19T22:33:24.130Z,11.1
2023-04-19T22:35:26.182Z,2.3
2023-04-19T22:37:31.340Z,5.1
2023-04-19T22:39:33.331Z,5.3
2023-04-19T22:41:35.340Z,6.7
2023-04-19T22:43:37.294Z,3.5
2023-04-19T22:47:41.317Z,4.8
2023-04-19T22:49:43.646Z,7
2023-04-19T22:51:48.461Z,4.2
2023-04-19T22:55:52.440Z,4.5
2023-04-19T22:56:56.598Z,6.1
2023-04-19T22:58:58.558Z,11
2023-04-19T23:03:02.754Z,5.8
2023-04-19T23:05:07.838Z,7.3
2023-04-19T23:07:09.694Z,2.9
2023-04-19T23:09:11.665Z,6.2
2023-04-19T23:11:13.694Z,4.6
2023-04-19T23:13:15.742Z,5.4
2023-04-19T23:17:19.589Z,10.4
2023-04-19T23:19:24.774Z,5
2023-04-19T23:21:26.765Z,9.8
2023-04-19T23:23:28.773Z,4.1
2023-04-19T23:25:30.746Z,4.3
2023-04-19T23:27:32.730Z,8
2023-04-19T23:31:36.729Z,5.6
2023-04-19T23:35:43.864Z,15.1
2023-04-19T23:37:45.838Z,7.9
2023-04-19T23:39:47.822Z,3.7
2023-04-19T23:41:49.788Z,5.4
2023-04-19T23:43:51.748Z,4.8
2023-04-19T23:45:53.744Z,3.6
2023-04-19T23:47:58.994Z,6.7
2023-04-19T23:50:00.921Z,2.9
2023-04-19T23:52:02.911Z,10
2023-04-19T23:54:31.828Z,5.6
2023-04-19T23:56:33.813Z,3.4
